createdAt,value
2022-11-04T00:02:29.924Z,7.30
2022-11-04T00:21:10.563Z,7.40
2022-11-04T00:39:51.100Z,7.50
2022-11-04T00:58:32.757Z,7.70
2022-11-04T01:17:14.081Z,7.50
2022-11-04T01:35:55.537Z,9.10
2022-11-04T01:54:36.069Z,10.20
2022-11-04T02:31:56.863Z,7.50
2022-11-04T02:50:44.034Z,7.90
2022-11-04T03:09:17.224Z,8.30
2022-11-04T03:27:58.851Z,9.50
2022-11-04T03:46:39.870Z,9.20
2022-11-04T04:05:21.223Z,7.60
2022-11-04T04:42:42.847Z,10.00
2022-11-04T05:20:04.495Z,8.30
2022-11-04T05:38:45.096Z,9.50
2022-11-04T05:57:26.305Z,11.40
2022-11-04T06:16:06.731Z,11.30
2022-11-04T06:34:47.703Z,10.60
2022-11-04T06:53:28.771Z,9.20
2022-11-04T07:12:10.651Z,14.80
2022-11-04T07:30:54.707Z,8.50
2022-11-04T08:08:15.686Z,7.60
2022-11-04T13:07:07.630Z,0.60
2022-11-04T13:25:57.396Z,0.50
2022-11-04T13:44:30.406Z,0.40
2022-11-04T14:03:17.386Z,0.30
2022-11-04T14:22:01.309Z,0.60
2022-11-04T14:40:27.556Z,1.10
2022-11-04T15:17:35.943Z,1.00
2022-11-04T15:36:12.772Z,0.80
2022-11-04T15:54:50.555Z,0.50
2022-11-04T16:13:22.306Z,1.20
2022-11-04T16:31:59.132Z,1.00
2022-11-04T16:50:38.878Z,1.50
2022-11-04T17:09:17.451Z,1.30
2022-11-04T17:27:56.085Z,1.60
2022-11-04T17:46:35.915Z,0.80
2022-11-04T18:05:15.834Z,1.30
2022-11-04T18:23:55.321Z,2.90
2022-11-04T18:42:37.983Z,3.20
2022-11-04T19:01:15.452Z,4.60
2022-11-04T19:19:53.081Z,3.40
2022-11-04T19:38:33.222Z,2.40
2022-11-04T19:57:04.661Z,3.10
2022-11-04T20:15:44.600Z,3.70
2022-11-04T20:34:23.106Z,2.80
2022-11-04T20:53:01.859Z,3.30
2022-11-04T21:11:38.470Z,2.60
2022-11-04T21:30:18.373Z,1.50
2022-11-04T21:48:55.269Z,2.20
2022-11-04T22:07:37.359Z,2.30
2022-11-04T22:26:12.149Z,1.40
2022-11-04T22:44:50.992Z,1.40
2022-11-04T23:03:32.019Z,1.20
2022-11-04T23:40:50.005Z,0.50
2022-11-04T23:59:29.539Z,1.60
